Time;durP1;ratioP1;P1;durP2;ratioP2;P2;SDS_P1;SDS_P2;PMS_P1;PMS_P2;Temp;Humidity;BMP_temperature;BMP_pressure;BME280_temperature;BME280_humidity;BME280_pressure;Samples;Min_cycle;Max_cycle;Signal;HPM_P1;HPM_P2
2020/12/28 00:02:23;;;;;;;6.00;4.77;;;3.30;99.90;;;1.82;100.00;97515.06;4864673;28;100354;-68
2020/12/28 00:04:50;;;;;;;5.17;4.60;;;3.40;99.90;;;1.76;100.00;97500.75;4866580;28;99927;-69
2020/12/28 00:07:17;;;;;;;6.63;5.23;;;3.30;99.90;;;1.71;100.00;97507.53;4866067;28;99992;-69
2020/12/28 00:09:44;;;;;;;6.20;5.20;;;3.30;99.90;;;1.75;100.00;97512.28;4864469;28;100527;-67
2020/12/28 00:12:11;;;;;;;5.93;4.97;;;3.40;99.90;;;1.77;100.00;97502.38;4862653;28;100269;-68
2020/12/28 00:14:38;;;;;;;9.47;4.07;;;3.50;99.90;;;1.74;100.00;97504.53;4863794;28;100005;-66
2020/12/28 00:17:04;;;;;;;5.33;4.50;;;4.60;99.90;;;1.81;100.00;97508.16;4863534;28;100274;-68
2020/12/28 00:19:31;;;;;;;5.10;4.03;;;3.50;99.90;;;1.79;100.00;97495.13;4863363;28;101807;-66
2020/12/28 00:21:58;;;;;;;6.50;5.40;;;3.50;99.90;;;1.87;100.00;97488.16;4863157;28;102382;-67
2020/12/28 00:24:26;;;;;;;5.20;4.33;;;3.40;99.90;;;1.80;100.00;97483.59;4863533;28;100320;-68
2020/12/28 00:26:52;;;;;;;7.87;5.17;;;3.60;99.90;;;1.67;100.00;97488.59;4862993;28;100415;-68
2020/12/28 00:29:19;;;;;;;6.07;4.90;;;3.40;99.90;;;1.74;100.00;97488.72;4863457;28;100929;-68
2020/12/28 00:31:46;;;;;;;5.83;4.37;;;3.40;99.90;;;1.75;100.00;97483.28;4862896;28;101563;-68
2020/12/28 00:34:12;;;;;;;5.97;4.37;;;3.40;99.90;;;1.76;100.00;97481.47;4863100;28;100381;-68
2020/12/28 00:36:39;;;;;;;5.50;4.90;;;3.20;99.90;;;1.79;100.00;97471.41;4862409;28;100237;-67
2020/12/28 00:39:06;;;;;;;6.53;4.13;;;3.20;99.90;;;1.80;100.00;97467.78;4863577;28;100989;-67
2020/12/28 00:41:34;;;;;;;4.70;3.93;;;3.30;99.90;;;1.82;100.00;97461.53;4863085;28;100969;-69
2020/12/28 00:44:00;;;;;;;5.40;4.43;;;3.50;99.90;;;1.90;100.00;97459.66;4863511;28;99960;-67
2020/12/28 00:46:28;;;;;;;5.97;4.13;;;3.40;99.90;;;1.88;100.00;97455.53;4863228;28;100051;-68
2020/12/28 00:48:55;;;;;;;4.67;4.20;;;3.80;99.90;;;1.85;100.00;97446.19;4863207;28;101451;-68
2020/12/28 00:51:22;;;;;;;4.80;4.20;;;3.50;99.90;;;1.93;100.00;97446.13;4862230;28;101187;-69
2020/12/28 00:53:58;;;;;;;4.57;3.87;;;3.60;99.90;;;1.98;100.00;97443.78;4877310;28;100107;-67
2020/12/28 00:56:27;;;;;;;4.70;4.20;;;3.50;99.90;;;1.95;100.00;97446.78;4863018;28;99976;-67
2020/12/28 00:58:55;;;;;;;4.53;4.13;;;3.50;99.90;;;2.00;100.00;97440.97;4861192;28;102390;-68
2020/12/28 01:01:22;;;;;;;5.40;4.60;;;3.50;99.90;;;1.94;100.00;97429.31;4862598;28;101289;-67
2020/12/28 01:03:48;;;;;;;5.47;4.97;;;3.60;99.90;;;1.96;100.00;97424.69;4863244;28;100154;-68
2020/12/28 01:06:18;;;;;;;5.63;5.03;;;3.60;99.90;;;1.92;100.00;97436.56;4862190;28;100261;-67
2020/12/28 01:08:52;;;;;;;5.07;4.53;;;3.50;99.90;;;1.84;100.00;97443.72;4877528;28;102756;-67
2020/12/28 01:11:21;;;;;;;5.83;5.33;;;3.50;99.90;;;1.93;100.00;97434.75;4876817;28;102882;-68
2020/12/28 01:13:49;;;;;;;7.67;6.40;;;3.40;99.90;;;1.95;100.00;97435.41;4877003;28;100062;-69
2020/12/28 01:16:17;;;;;;;10.37;7.17;;;3.80;99.90;;;1.78;100.00;97445.22;4860698;28;100429;-68
2020/12/28 01:18:47;;;;;;;5.73;5.13;;;3.40;99.90;;;1.88;100.00;97440.53;4863043;28;100927;-68
2020/12/28 01:21:20;;;;;;;7.80;4.40;;;3.40;99.90;;;1.80;100.00;97438.78;4872724;28;102766;-67
2020/12/28 01:23:47;;;;;;;5.70;5.10;;;3.90;99.90;;;1.87;100.00;97433.63;4844037;28;100087;-69
2020/12/28 01:26:15;;;;;;;5.57;5.00;;;3.60;99.90;;;1.89;100.00;97436.09;4857195;28;100267;-67
2020/12/28 01:28:46;;;;;;;6.20;5.07;;;3.50;99.90;;;1.93;100.00;97446.13;4858077;28;102456;-67
2020/12/28 01:31:13;;;;;;;5.27;4.77;;;3.50;99.90;;;1.93;100.00;97443.50;4857102;28;101478;-67
2020/12/28 01:33:59;;;;;;;5.40;4.60;;;3.50;99.90;;;1.82;100.00;97449.16;4841194;28;100182;-67
2020/12/28 01:36:29;;;;;;;6.27;5.67;;;4.20;99.90;;;1.86;100.00;97444.34;4856864;28;100292;-69
2020/12/28 01:38:56;;;;;;;6.20;5.37;;;3.50;99.90;;;1.81;100.00;97434.31;4857339;28;101236;-69
2020/12/28 01:41:23;;;;;;;7.00;5.03;;;3.50;99.90;;;1.85;100.00;97426.91;4873096;28;102296;-69
2020/12/28 01:43:50;;;;;;;5.80;4.93;;;3.40;99.90;;;1.85;100.00;97426.91;4862648;28;100084;-68
2020/12/28 01:46:21;;;;;;;5.63;5.00;;;3.70;99.90;;;1.81;100.00;97418.50;4876108;28;100693;-67
2020/12/28 01:48:48;;;;;;;5.80;4.30;;;4.30;99.90;;;1.76;100.00;97434.84;4876125;28;103305;-68
2020/12/28 01:51:21;;;;;;;5.93;5.23;;;3.50;99.90;;;1.75;100.00;97425.28;4875380;28;100988;-67
2020/12/28 01:53:48;;;;;;;5.80;5.20;;;3.50;99.90;;;1.80;100.00;97412.41;4876386;28;100338;-69
2020/12/28 01:56:28;;;;;;;6.10;5.00;;;3.60;99.90;;;1.78;100.00;97409.13;4876008;28;100916;-69
2020/12/28 01:58:55;;;;;;;6.20;5.00;;;3.50;99.90;;;1.84;100.00;97414.72;4861917;28;100982;-67
2020/12/28 02:01:40;;;;;;;6.00;5.40;;;3.40;99.90;;;1.80;100.00;97403.69;4875361;28;100882;-66
2020/12/28 02:04:09;;;;;;;6.07;5.40;;;3.50;99.90;;;1.74;100.00;97404.38;4875892;28;100504;-68
2020/12/28 02:06:42;;;;;;;6.47;5.70;;;3.50;99.90;;;1.74;100.00;97410.47;4859669;28;100297;-68
2020/12/28 02:09:12;;;;;;;6.27;5.40;;;3.40;99.90;;;1.83;100.00;97411.25;4860410;28;103356;-66
2020/12/28 02:11:39;;;;;;;5.87;5.27;;;3.40;99.90;;;1.85;100.00;97398.72;4846058;28;100730;-67
2020/12/28 02:14:07;;;;;;;7.33;5.87;;;3.50;99.90;;;1.76;100.00;97402.38;4846142;28;100345;-67
2020/12/28 02:16:43;;;;;;;7.30;5.33;;;3.40;99.90;;;1.76;100.00;97403.19;4859381;28;100414;-68
2020/12/28 02:19:13;;;;;;;5.63;5.07;;;3.40;99.90;;;1.77;100.00;97414.56;4845738;28;100842;-66
2020/12/28 02:21:45;;;;;;;6.37;5.57;;;3.40;99.90;;;1.85;100.00;97413.72;4863280;28;102113;-68
2020/12/28 02:24:16;;;;;;;6.47;5.30;;;3.40;99.90;;;1.82;100.00;97424.59;4878464;28;100684;-68
2020/12/28 02:26:45;;;;;;;5.17;4.70;;;3.40;99.90;;;1.84;100.00;97418.19;4878889;28;100332;-67
2020/12/28 02:29:12;;;;;;;5.90;5.00;;;3.30;99.90;;;1.89;100.00;97430.81;4879177;28;102163;-68
2020/12/28 02:31:38;;;;;;;5.83;5.20;;;4.00;99.90;;;1.82;100.00;97419.34;4878791;28;101579;-68
2020/12/28 02:34:14;;;;;;;5.93;5.23;;;3.60;99.90;;;1.78;100.00;97410.94;4863203;28;100323;-68
2020/12/28 02:36:50;;;;;;;7.23;5.57;;;3.40;99.90;;;1.79;100.00;97408.13;4878985;28;100175;-67
2020/12/28 02:39:17;;;;;;;5.93;5.00;;;3.50;99.90;;;1.85;100.00;97405.81;4864373;28;100934;-66
2020/12/28 02:41:45;;;;;;;5.83;5.13;;;3.60;99.90;;;1.87;100.00;97411.72;4877575;28;100141;-68
2020/12/28 02:44:30;;;;;;;5.60;5.10;;;3.70;99.90;;;1.90;100.00;97416.66;4863269;28;100094;-67
2020/12/28 02:47:16;;;;;;;5.87;4.53;;;3.60;99.90;;;1.86;100.00;97410.88;4861942;28;100275;-68
2020/12/28 02:50:01;;;;;;;7.03;5.97;;;3.60;99.90;;;1.91;100.00;97392.75;4863272;28;100483;-66
2020/12/28 02:52:47;;;;;;;6.70;5.53;;;3.60;99.90;;;1.84;100.00;97383.91;4861209;28;99918;-68
2020/12/28 02:55:32;;;;;;;5.60;4.77;;;3.60;99.90;;;1.88;100.00;97372.00;4864645;28;100304;-68
2020/12/28 02:58:17;;;;;;;6.07;5.47;;;3.70;99.90;;;1.92;100.00;97375.94;4861740;28;99881;-68
2020/12/28 03:01:03;;;;;;;6.50;5.10;;;3.80;99.90;;;1.86;100.00;97370.50;4863556;28;100599;-67
2020/12/28 03:03:47;;;;;;;7.00;5.40;;;3.50;99.90;;;1.80;100.00;97362.31;4861908;28;100028;-68
2020/12/28 03:06:33;;;;;;;6.80;5.37;;;3.80;99.90;;;1.84;100.00;97362.00;4864415;28;100149;-68
2020/12/28 03:09:19;;;;;;;7.43;5.13;;;3.70;99.90;;;1.89;100.00;97372.81;4862606;28;100005;-68
2020/12/28 03:12:05;;;;;;;7.17;4.90;;;4.50;99.90;;;1.87;100.00;97369.53;4842157;28;100684;-69
2020/12/28 03:14:51;;;;;;;7.00;5.03;;;3.60;99.90;;;1.88;100.00;97364.09;4844260;28;100226;-68
2020/12/28 03:17:36;;;;;;;7.47;5.50;;;3.70;99.90;;;1.86;100.00;97354.69;4843013;28;100122;-68
2020/12/28 03:20:21;;;;;;;6.83;5.57;;;3.80;99.90;;;1.90;100.00;97353.38;4844760;28;99913;-66
2020/12/28 03:23:27;;;;;;;6.47;5.37;;;3.80;99.90;;;1.92;100.00;97356.66;4840829;28;100362;-68
2020/12/28 03:26:13;;;;;;;5.97;4.53;;;3.70;99.90;;;1.96;100.00;97361.41;4840048;28;100200;-68
2020/12/28 03:28:58;;;;;;;8.00;5.60;;;3.70;99.90;;;1.93;100.00;97363.56;4848545;28;100252;-67
2020/12/28 03:31:43;;;;;;;5.17;4.67;;;4.30;99.90;;;1.92;100.00;97369.84;4864005;28;100057;-68
2020/12/28 03:34:29;;;;;;;6.10;4.93;;;3.90;99.90;;;1.91;100.00;97355.81;4862562;28;100314;-68
2020/12/28 03:37:14;;;;;;;6.07;5.03;;;3.70;99.90;;;1.90;100.00;97356.81;4860752;28;100318;-67
2020/12/28 03:39:59;;;;;;;5.93;5.23;;;3.70;99.90;;;1.87;100.00;97357.16;4863518;28;99910;-68
2020/12/28 03:42:45;;;;;;;5.33;4.83;;;3.70;99.90;;;1.92;100.00;97354.84;4860875;28;99930;-67
2020/12/28 03:45:30;;;;;;;5.33;4.83;;;3.90;99.90;;;1.94;100.00;97346.75;4863414;28;100898;-68
2020/12/28 03:48:16;;;;;;;5.20;4.57;;;3.70;99.90;;;1.96;100.00;97352.69;4860622;28;99913;-67
2020/12/28 03:51:01;;;;;;;6.17;5.10;;;4.50;99.90;;;1.97;100.00;97338.50;4844001;28;100441;-67
2020/12/28 03:53:46;;;;;;;6.63;5.27;;;3.80;99.90;;;1.89;100.00;97344.63;4842989;28;100045;-68
2020/12/28 03:56:33;;;;;;;5.93;5.17;;;3.90;99.90;;;2.01;100.00;97345.03;4869113;28;100206;-67
2020/12/28 03:59:36;;;;;;;5.90;5.17;;;4.20;99.90;;;1.96;100.00;97339.50;4803317;28;100638;-68
2020/12/28 04:02:21;;;;;;;5.90;5.30;;;3.80;99.90;;;1.93;100.00;97343.28;4859087;28;100170;-67
2020/12/28 04:05:23;;;;;;;7.90;5.53;;;3.80;99.90;;;1.95;100.00;97346.59;4803388;28;100590;-67
2020/12/28 04:08:08;;;;;;;6.80;5.23;;;3.80;99.90;;;1.96;100.00;97340.31;4841387;28;100446;-67
2020/12/28 04:10:53;;;;;;;7.03;5.77;;;3.90;99.90;;;1.96;100.00;97336.84;4859700;28;100325;-67
2020/12/28 04:13:37;;;;;;;5.90;5.03;;;3.80;99.90;;;2.00;100.00;97332.84;4861532;28;100254;-68
2020/12/28 04:16:05;;;;;;;8.53;5.60;;;3.90;99.90;;;1.94;100.00;97326.47;4863937;28;99994;-68
2020/12/28 04:18:32;;;;;;;6.53;5.00;;;3.80;99.90;;;1.92;100.00;97320.56;4863050;28;100604;-66
2020/12/28 04:20:58;;;;;;;6.00;4.90;;;3.80;99.90;;;1.92;100.00;97320.56;4863699;28;100763;-68
2020/12/28 04:23:25;;;;;;;6.70;4.90;;;5.00;99.90;;;1.88;100.00;97315.81;4863783;28;100274;-69
2020/12/28 04:25:51;;;;;;;6.20;5.60;;;3.80;99.90;;;1.95;100.00;97308.84;4863758;28;100239;-68
2020/12/28 04:28:18;;;;;;;6.67;5.03;;;4.10;99.90;;;1.90;100.00;97316.44;4862586;28;100956;-68
2020/12/28 04:30:44;;;;;;;5.97;5.13;;;3.70;99.90;;;1.93;100.00;97316.09;4862922;28;100672;-67
2020/12/28 04:33:12;;;;;;;7.67;4.87;;;3.70;99.90;;;1.87;100.00;97311.53;4863842;28;100148;-69
2020/12/28 04:35:38;;;;;;;6.90;5.70;;;3.80;99.90;;;1.87;100.00;97314.97;4863440;28;100254;-68
2020/12/28 04:38:05;;;;;;;6.83;5.53;;;3.90;99.90;;;1.84;100.00;97314.53;4863894;28;100546;-67
2020/12/28 04:40:32;;;;;;;7.67;5.60;;;3.50;99.90;;;1.93;100.00;97313.47;4863252;28;101244;-67
2020/12/28 04:43:01;;;;;;;6.20;5.60;;;3.70;99.90;;;1.88;100.00;97315.81;4864409;28;100212;-69
2020/12/28 04:45:28;;;;;;;6.93;5.37;;;3.70;99.90;;;1.85;100.00;97305.63;4863248;28;100028;-68
2020/12/28 04:47:56;;;;;;;6.73;4.63;;;3.70;99.90;;;1.78;100.00;97303.69;4863139;28;100864;-65
2020/12/28 04:50:24;;;;;;;6.90;4.90;;;3.60;99.90;;;1.84;100.00;97299.53;4863730;28;100544;-68
2020/12/28 04:52:50;;;;;;;6.77;5.70;;;5.10;99.90;;;1.77;100.00;97296.75;4864122;28;100031;-67
2020/12/28 04:55:17;;;;;;;5.80;4.83;;;3.60;99.90;;;1.72;100.00;97293.84;4862816;28;100019;-70
2020/12/28 04:57:44;;;;;;;7.00;5.07;;;3.50;99.90;;;1.69;100.00;97283.66;4862988;28;101842;-68
2020/12/28 05:00:10;;;;;;;8.73;5.33;;;3.40;99.90;;;1.64;100.00;97285.97;4863646;28;100861;-69
2020/12/28 05:02:40;;;;;;;7.50;5.60;;;3.50;99.90;;;1.73;100.00;97286.75;4863684;28;100141;-68
2020/12/28 05:05:08;;;;;;;6.17;4.90;;;3.40;99.90;;;1.71;100.00;97286.13;4844309;28;99832;-68
2020/12/28 05:07:36;;;;;;;6.97;5.33;;;3.50;99.90;;;1.68;100.00;97289.09;4844165;28;101477;-66
2020/12/28 05:10:03;;;;;;;8.33;5.40;;;3.40;99.90;;;1.62;100.00;97285.31;4843571;28;100516;-66
2020/12/28 05:12:29;;;;;;;7.40;4.60;;;3.10;99.90;;;1.56;100.00;97278.13;4843939;28;100299;-68
2020/12/28 05:15:07;;;;;;;6.60;4.97;;;3.40;99.90;;;1.63;100.00;97279.06;4843165;28;100270;-68
2020/12/28 05:17:33;;;;;;;5.93;5.00;;;3.50;99.90;;;1.58;100.00;97284.06;4858129;28;100595;-68
2020/12/28 05:20:01;;;;;;;5.40;4.63;;;3.30;99.90;;;1.60;100.00;97278.63;4861832;28;101205;-68
2020/12/28 05:22:28;;;;;;;7.30;5.30;;;3.30;99.90;;;1.58;100.00;97280.59;4863555;28;100285;-67
2020/12/28 05:24:56;;;;;;;5.40;4.90;;;3.10;99.90;;;1.64;100.00;97283.34;4862198;28;100183;-67
2020/12/28 05:27:23;;;;;;;6.83;5.57;;;3.20;99.90;;;1.62;100.00;97282.69;4862625;28;101560;-69
2020/12/28 05:29:51;;;;;;;6.53;4.73;;;3.20;99.90;;;1.52;100.00;97292.66;4862931;28;100956;-69
2020/12/28 05:32:19;;;;;;;7.03;5.20;;;3.30;99.90;;;1.47;100.00;97281.81;4862604;28;100269;-68
2020/12/28 05:34:47;;;;;;;7.07;5.20;;;3.20;99.90;;;1.55;100.00;97275.69;4862881;28;99959;-67
2020/12/28 05:37:15;;;;;;;6.80;4.60;;;3.30;99.90;;;1.52;100.00;97284.75;4862992;28;101677;-68
2020/12/28 05:39:42;;;;;;;6.13;5.23;;;3.20;99.90;;;1.39;100.00;97279.22;4862120;28;99985;-66
2020/12/28 05:42:11;;;;;;;6.63;5.23;;;3.20;99.90;;;1.29;100.00;97278.63;4876955;28;100171;-66
2020/12/28 05:44:39;;;;;;;7.63;5.03;;;3.00;99.90;;;1.29;100.00;97273.34;4862369;28;100279;-67
2020/12/28 05:47:09;;;;;;;5.63;4.87;;;3.00;99.90;;;1.27;100.00;97270.88;4862994;28;100960;-67
2020/12/28 05:49:37;;;;;;;7.40;5.23;;;3.00;99.90;;;1.33;100.00;97264.94;4862514;28;100960;-66
2020/12/28 05:52:06;;;;;;;6.33;5.07;;;3.80;99.90;;;1.34;100.00;97268.41;4862811;28;100019;-66
2020/12/28 05:54:34;;;;;;;6.27;4.93;;;3.00;99.90;;;1.28;100.00;97263.81;4862183;28;100124;-66
2020/12/28 05:57:01;;;;;;;6.30;5.20;;;3.00;99.90;;;1.34;100.00;97271.03;4862769;28;101547;-65
2020/12/28 05:59:31;;;;;;;6.03;5.40;;;3.10;99.90;;;1.48;100.00;97259.75;4862099;28;100248;-66
2020/12/28 06:01:58;;;;;;;8.63;5.10;;;3.00;99.90;;;1.44;100.00;97259.28;4862498;28;100297;-69
2020/12/28 06:04:25;;;;;;;6.17;4.90;;;2.90;99.90;;;1.42;100.00;97247.25;4862504;28;100118;-67
2020/12/28 06:06:57;;;;;;;6.37;5.50;;;3.00;99.90;;;1.50;100.00;97259.56;4862251;28;101117;-68
2020/12/28 06:09:24;;;;;;;7.10;5.17;;;3.00;99.90;;;1.44;100.00;97255.81;4861475;28;100420;-69
2020/12/28 06:12:01;;;;;;;6.77;5.23;;;3.00;99.90;;;1.52;100.00;97258.41;4865945;28;100273;-67
2020/12/28 06:14:34;;;;;;;7.03;5.03;;;3.20;99.90;;;1.53;100.00;97257.41;4862607;28;100076;-66
2020/12/28 06:17:05;;;;;;;6.47;4.93;;;3.00;99.90;;;1.48;100.00;97251.84;4861787;28;100999;-66
2020/12/28 06:19:31;;;;;;;6.73;5.50;;;3.10;99.90;;;1.48;100.00;97248.41;4861670;28;101247;-67
2020/12/28 06:21:58;;;;;;;6.20;5.10;;;3.20;99.90;;;1.42;100.00;97252.53;4861999;28;100049;-67
2020/12/28 06:24:30;;;;;;;7.37;5.50;;;3.00;99.90;;;1.47;100.00;97247.56;4861489;28;100145;-66
2020/12/28 06:27:25;;;;;;;6.60;4.87;;;3.00;99.90;;;1.39;100.00;97237.88;4859980;28;100550;-66
2020/12/28 06:29:53;;;;;;;5.73;4.87;;;3.00;99.90;;;1.37;100.00;97239.06;4859123;28;101182;-67
2020/12/28 06:32:19;;;;;;;7.63;6.37;;;3.00;99.90;;;1.38;100.00;97222.25;4858678;28;100055;-66
2020/12/28 06:34:47;;;;;;;14.77;8.93;;;2.90;99.90;;;1.36;100.00;97213.72;4858009;28;99995;-66
2020/12/28 06:37:14;;;;;;;13.90;9.97;;;3.90;99.90;;;1.35;100.00;97199.75;4858866;28;100640;-66
2020/12/28 06:39:41;;;;;;;23.53;13.00;;;2.90;99.90;;;1.39;100.00;97208.09;4859003;28;100761;-65
2020/12/28 06:42:13;;;;;;;18.33;12.47;;;3.10;99.90;;;1.37;100.00;97204.81;4859467;28;100481;-65
2020/12/28 06:44:41;;;;;;;12.17;8.10;;;2.20;99.90;;;1.37;100.00;97208.25;4872358;28;100065;-68
2020/12/28 06:47:20;;;;;;;19.57;11.97;;;3.00;99.90;;;1.37;100.00;97205.63;4859382;28;100681;-67
2020/12/28 06:49:47;;;;;;;22.63;12.63;;;3.00;99.90;;;1.38;100.00;97204.63;4858751;28;100442;-65
2020/12/28 06:52:14;;;;;;;20.33;13.70;;;3.00;99.90;;;1.39;100.00;97210.72;4861700;28;100160;-69
2020/12/28 06:54:41;;;;;;;26.77;17.37;;;3.00;99.90;;;1.41;100.00;97212.19;4862249;28;100101;-68
2020/12/28 06:57:08;;;;;;;7.90;6.80;;;3.30;99.90;;;1.38;100.00;97212.53;4862032;28;101880;-67
2020/12/28 06:59:40;;;;;;;6.77;5.60;;;3.00;99.90;;;1.40;100.00;97209.72;4874998;28;102680;-67
2020/12/28 07:02:09;;;;;;;8.73;5.70;;;2.90;99.90;;;1.46;100.00;97205.59;4880387;28;100163;-68
2020/12/28 07:04:38;;;;;;;6.83;6.10;;;2.90;99.90;;;1.47;100.00;97220.41;4919807;28;100361;-67
2020/12/28 07:07:06;;;;;;;8.77;7.80;;;3.00;99.90;;;1.47;100.00;97223.03;4961789;28;100757;-68
2020/12/28 07:09:34;;;;;;;7.33;5.87;;;2.90;99.90;;;1.47;100.00;97215.13;4961891;28;100604;-67
2020/12/28 07:12:05;;;;;;;9.73;7.93;;;3.00;99.90;;;1.46;100.00;97224.03;4962640;28;100131;-66
2020/12/28 07:14:32;;;;;;;9.83;8.10;;;3.00;99.90;;;1.51;100.00;97232.22;4962359;28;100176;-66
2020/12/28 07:16:59;;;;;;;6.27;4.40;;;3.20;99.90;;;1.57;100.00;97234.16;4962991;28;100524;-67
2020/12/28 07:19:25;;;;;;;5.57;4.80;;;3.00;99.90;;;1.64;100.00;97241.19;4961653;28;100644;-68
2020/12/28 07:21:53;;;;;;;6.90;5.80;;;3.00;99.90;;;1.59;100.00;97238.25;4876850;28;100285;-68
2020/12/28 07:24:21;;;;;;;16.23;11.77;;;3.20;99.90;;;1.55;100.00;97234.34;4861129;28;100079;-67
2020/12/28 07:26:48;;;;;;;8.07;6.80;;;1.90;99.90;;;1.53;100.00;97246.03;4861420;28;100802;-69
2020/12/28 07:29:16;;;;;;;22.40;14.03;;;3.90;99.90;;;1.54;100.00;97251.13;4861340;28;101399;-67
2020/12/28 07:31:44;;;;;;;7.97;6.43;;;3.00;99.90;;;1.51;100.00;97258.56;4861914;28;100175;-68
2020/12/28 07:34:14;;;;;;;11.90;8.37;;;3.20;99.90;;;1.58;100.00;97257.72;4861528;28;100116;-66
2020/12/28 07:36:45;;;;;;;5.23;4.47;;;3.10;99.90;;;1.55;100.00;97262.50;4875543;28;100713;-66
2020/12/28 07:39:13;;;;;;;6.03;4.83;;;3.20;99.90;;;1.59;100.00;97266.44;4859694;28;100204;-66
2020/12/28 07:41:40;;;;;;;6.23;4.90;;;3.00;99.90;;;1.60;100.00;97258.34;4862504;28;100236;-66
2020/12/28 07:44:12;;;;;;;6.07;5.10;;;3.20;99.90;;;1.58;100.00;97268.25;4861514;28;99929;-65
2020/12/28 07:46:59;;;;;;;6.60;5.10;;;3.30;99.90;;;1.67;100.00;97267.19;4860858;28;101117;-66
2020/12/28 07:49:28;;;;;;;6.23;4.60;;;3.30;99.90;;;1.71;100.00;97265.84;4861580;28;100146;-67
2020/12/28 07:52:06;;;;;;;5.60;4.40;;;3.20;99.90;;;1.76;100.00;97268.75;4875359;28;100306;-67
2020/12/28 07:54:44;;;;;;;4.87;4.03;;;3.30;99.90;;;1.73;100.00;97271.75;4860955;28;100316;-66
2020/12/28 07:57:19;;;;;;;3.90;3.50;;;3.40;99.90;;;1.80;100.00;97271.88;4861704;28;101247;-64
2020/12/28 08:00:05;;;;;;;5.47;4.23;;;3.30;99.90;;;1.74;100.00;97276.03;4861636;28;100260;-65
2020/12/28 08:02:47;;;;;;;4.17;3.77;;;3.30;99.90;;;1.75;100.00;97258.38;4861516;28;100056;-65
2020/12/28 08:05:14;;;;;;;5.30;3.90;;;3.30;99.90;;;1.80;100.00;97272.69;4861460;28;100310;-65
2020/12/28 08:07:41;;;;;;;5.90;4.30;;;3.50;99.90;;;1.82;100.00;97269.06;4861644;28;100845;-64
2020/12/28 08:10:10;;;;;;;4.40;3.93;;;3.40;99.90;;;1.81;100.00;97281.44;4860554;28;101068;-66
2020/12/28 08:12:41;;;;;;;5.33;4.37;;;3.40;99.90;;;1.86;100.00;97280.88;4861629;28;100416;-66
2020/12/28 08:15:08;;;;;;;5.40;4.80;;;3.60;99.90;;;1.86;100.00;97288.78;4858691;28;99990;-66
2020/12/28 08:17:34;;;;;;;4.20;3.37;;;3.40;99.90;;;1.84;100.00;97281.06;4860776;28;101930;-67
2020/12/28 08:20:11;;;;;;;4.70;4.10;;;3.60;99.90;;;1.85;100.00;97280.09;4861112;28;101241;-68
2020/12/28 08:22:38;;;;;;;6.80;5.03;;;3.60;99.90;;;1.80;100.00;97285.06;4860917;28;100078;-65
2020/12/28 08:25:06;;;;;;;4.97;4.40;;;3.60;99.90;;;1.75;100.00;97288.22;4860867;28;100201;-67
2020/12/28 08:27:34;;;;;;;5.57;4.50;;;3.70;99.90;;;1.75;100.00;97279.47;4861150;28;100109;-64
2020/12/28 08:30:06;;;;;;;4.57;4.10;;;3.70;99.90;;;1.77;100.00;97280.94;4860622;28;100733;-66
2020/12/28 08:32:34;;;;;;;4.40;4.00;;;3.40;99.90;;;1.79;100.00;97283.41;4861811;28;99922;-65
2020/12/28 08:35:02;;;;;;;5.23;4.73;;;3.50;99.90;;;1.75;100.00;97285.56;4861425;28;100394;-67
2020/12/28 08:37:29;;;;;;;5.10;3.37;;;3.50;99.90;;;1.82;100.00;97277.78;4861743;28;101382;-66
2020/12/28 08:39:56;;;;;;;5.57;4.27;;;3.60;99.90;;;1.83;100.00;97281.25;4860725;28;100870;-66
2020/12/28 08:42:28;;;;;;;5.20;4.60;;;3.50;99.90;;;1.87;100.00;97279.88;4861258;28;100194;-66
2020/12/28 08:44:56;;;;;;;4.67;4.10;;;3.50;99.90;;;1.85;100.00;97287.19;4861318;28;100352;-66
2020/12/28 08:47:25;;;;;;;5.97;4.00;;;3.70;99.90;;;1.90;100.00;97275.09;4860688;28;100829;-65
2020/12/28 08:49:53;;;;;;;5.63;4.90;;;3.50;99.90;;;1.94;100.00;97296.66;4860100;28;100906;-67
2020/12/28 08:52:21;;;;;;;34.37;17.83;;;4.30;99.90;;;1.96;100.00;97274.41;4861102;28;100157;-65
2020/12/28 08:54:56;;;;;;;7.20;4.70;;;3.80;99.90;;;1.95;100.00;97269.28;4860850;28;100192;-67
2020/12/28 08:57:24;;;;;;;5.03;4.27;;;3.80;99.90;;;1.99;100.00;97267.91;4860621;28;101476;-65
2020/12/28 08:59:52;;;;;;;4.67;4.03;;;3.70;99.90;;;1.96;100.00;97260.38;4860416;28;100288;-68
2020/12/28 09:02:22;;;;;;;5.67;4.53;;;3.80;99.90;;;1.97;100.00;97264.66;4860606;28;100387;-66
2020/12/28 09:04:49;;;;;;;5.63;5.00;;;3.70;99.90;;;2.01;100.00;97263.28;4859733;28;100181;-67
2020/12/28 09:07:17;;;;;;;5.60;4.77;;;3.80;99.90;;;2.03;100.00;97270.03;4860312;28;101249;-67
2020/12/28 09:09:46;;;;;;;5.70;4.20;;;3.90;99.90;;;2.04;100.00;97269.03;4860117;28;101280;-66
2020/12/28 09:12:15;;;;;;;5.67;4.57;;;4.00;99.90;;;2.07;100.00;97275.78;4860836;28;100124;-67
2020/12/28 09:14:43;;;;;;;5.97;4.73;;;3.70;99.90;;;2.09;100.00;97277.25;4858995;28;100517;-68
2020/12/28 09:17:10;;;;;;;5.40;4.40;;;3.90;99.90;;;2.15;100.00;97273.88;4860373;28;100211;-66
2020/12/28 09:19:37;;;;;;;5.57;4.83;;;5.10;99.90;;;2.17;100.00;97274.53;4859623;28;100418;-66
2020/12/28 09:22:04;;;;;;;5.40;4.90;;;4.10;99.90;;;2.19;100.00;97277.00;4915475;28;100197;-67
2020/12/28 09:24:30;;;;;;;5.80;4.70;;;3.90;99.90;;;2.21;100.00;97263.63;4929205;28;99990;-66
2020/12/28 09:26:58;;;;;;;6.23;4.60;;;4.20;99.90;;;2.23;100.00;97261.59;4919425;28;101325;-65
2020/12/28 09:29:25;;;;;;;4.80;4.30;;;4.00;99.90;;;2.25;100.00;97255.16;4883065;28;101743;-65
2020/12/28 09:31:52;;;;;;;5.17;4.43;;;5.20;99.90;;;2.31;100.00;97243.09;4896247;28;100213;-67
2020/12/28 09:34:21;;;;;;;4.83;4.37;;;4.20;99.90;;;2.31;100.00;97238.63;4859971;28;100384;-67
2020/12/28 09:36:59;;;;;;;6.50;5.37;;;4.30;99.90;;;2.31;100.00;97233.34;4859850;28;100994;-65
2020/12/28 09:39:35;;;;;;;5.53;5.00;;;4.20;99.90;;;2.36;100.00;97232.78;4859625;28;100852;-65
2020/12/28 09:42:02;;;;;;;6.73;5.70;;;4.30;99.90;;;2.37;100.00;97250.25;4860052;28;100125;-65
2020/12/28 09:44:30;;;;;;;6.93;5.83;;;4.10;99.90;;;2.41;100.00;97251.53;4860333;28;100105;-67
2020/12/28 09:46:58;;;;;;;6.03;5.07;;;4.50;99.90;;;2.46;100.00;97260.56;4859959;28;100838;-66
2020/12/28 09:49:25;;;;;;;6.37;5.63;;;4.50;99.90;;;2.44;100.00;97259.13;4859355;28;99995;-67
2020/12/28 09:51:53;;;;;;;7.80;6.57;;;4.50;99.90;;;2.44;100.00;97243.28;4860091;28;100253;-67
2020/12/28 09:54:21;;;;;;;8.90;6.57;;;5.70;99.90;;;2.45;100.00;97243.09;4859428;28;100192;-65
2020/12/28 09:56:47;;;;;;;6.93;5.80;;;4.70;99.90;;;2.46;100.00;97243.91;4859377;28;102058;-67
2020/12/28 09:59:14;;;;;;;5.17;4.20;;;4.70;99.90;;;2.48;100.00;97234.81;4859502;28;101253;-66
2020/12/28 10:01:44;;;;;;;5.07;4.57;;;4.60;99.90;;;2.53;100.00;97236.91;4859964;28;100113;-66
2020/12/28 10:04:12;;;;;;;6.73;5.33;;;4.60;99.90;;;2.53;100.00;97228.97;4859839;28;100136;-67
2020/12/28 10:06:38;;;;;;;5.50;4.73;;;4.70;99.90;;;2.53;100.00;97227.16;4859594;28;101454;-65
2020/12/28 10:09:10;;;;;;;5.47;4.47;;;5.40;99.90;;;2.62;100.00;97227.06;4859946;28;100476;-67
2020/12/28 10:11:36;;;;;;;5.90;4.80;;;5.70;99.90;;;2.57;100.00;97227.63;4859981;28;100264;-67
2020/12/28 10:14:03;;;;;;;5.27;4.77;;;4.90;99.90;;;2.60;100.00;97234.38;4859574;28;100040;-66
2020/12/28 10:16:32;;;;;;;7.17;5.30;;;5.00;99.90;;;2.59;100.00;97244.13;4858572;28;100961;-65
2020/12/28 10:18:59;;;;;;;5.63;4.57;;;4.90;99.90;;;2.61;100.00;97247.38;4858582;28;100732;-66
2020/12/28 10:21:27;;;;;;;5.80;5.20;;;5.00;99.90;;;2.61;100.00;97242.09;4859118;28;100025;-68
2020/12/28 10:23:54;;;;;;;25.17;15.73;;;5.20;99.90;;;2.69;100.00;97241.19;4859736;28;100281;-66
2020/12/28 10:26:24;;;;;;;11.67;8.87;;;5.10;99.90;;;2.70;100.00;97246.28;4859930;28;100280;-67
2020/12/28 10:28:52;;;;;;;7.20;5.70;;;5.30;99.90;;;2.81;100.00;97242.38;4861783;28;100905;-67
2020/12/28 10:31:20;;;;;;;6.27;5.30;;;5.20;99.90;;;2.86;100.00;97255.81;4861659;28;99914;-67
2020/12/28 10:33:49;;;;;;;7.27;5.77;;;5.50;99.60;;;2.93;100.00;97248.00;4862854;28;100442;-66
2020/12/28 10:36:17;;;;;;;5.13;4.63;;;5.50;98.90;;;3.12;100.00;97248.22;4861582;28;101475;-66
2020/12/28 10:38:45;;;;;;;5.97;4.50;;;5.60;99.00;;;3.07;100.00;97250.63;4862047;28;100185;-66